Terminal Aerodrome Forecast
Issued by NWS

Home | Current Version | Previous Version | Text Only | Print | Product List | Glossary Off
Versions: 1 2 3 4 5 6 7 8 9 10 11 12 13 14 15 16 17
000 FTUS41 KBOX 272108 AAB TAFBED TAF AMD KBED 272108Z 2721/2818 32006KT 2SM TSRA BR BKN045CB FM272200 21005KT 5SM SHRA VCTS BKN040CB FM272300 21006KT P6SM VCSH BKN045 FM280200 24004KT P6SM SCT045 FM281300 29010KT P6SM SKC FM281700 29010G18KT P6SM SCT045=

USA.gov is the U.S. government's official web portal to all federal, state and local government web resources and services.